Time;durP1;ratioP1;P1;durP2;ratioP2;P2;SDS_P1;SDS_P2;PMS_P1;PMS_P2;Temp;Humidity;BMP_temperature;BMP_pressure;BME280_temperature;BME280_humidity;BME280_pressure;Samples;Min_cycle;Max_cycle;Signal;HPM_P1;HPM_P2
2023/06/06 00:00:56;;;;;;;5.85;2.05;;;19.10;60.80;;;;;;6123562;23;20566;-65
2023/06/06 00:03:44;;;;;;;5.45;1.92;;;19.10;60.90;;;;;;6123098;23;20014;-65
2023/06/06 00:06:33;;;;;;;4.43;2.10;;;19.10;61.00;;;;;;6121552;23;20002;-65
2023/06/06 00:09:19;;;;;;;4.22;2.42;;;19.00;61.00;;;;;;6120732;23;20017;-65
2023/06/06 00:12:12;;;;;;;6.03;1.77;;;19.00;61.10;;;;;;6123380;23;20080;-65
2023/06/06 00:14:59;;;;;;;3.70;2.08;;;18.90;61.10;;;;;;6122196;23;20014;-65
2023/06/06 00:17:48;;;;;;;3.70;1.73;;;18.90;61.30;;;;;;6121297;23;20100;-65
2023/06/06 00:20:35;;;;;;;6.72;2.58;;;18.90;61.40;;;;;;6122329;23;20034;-65
2023/06/06 00:23:21;;;;;;;2.85;1.73;;;18.90;61.50;;;;;;6122342;23;20028;-65
2023/06/06 00:26:07;;;;;;;3.58;1.85;;;18.80;61.60;;;;;;6091782;23;20026;-65
2023/06/06 00:28:54;;;;;;;3.78;2.17;;;18.70;61.60;;;;;;6092650;23;20440;-65
2023/06/06 00:31:40;;;;;;;2.90;1.90;;;18.70;61.80;;;;;;6091505;23;20007;-65
2023/06/06 00:34:26;;;;;;;4.00;2.05;;;18.70;61.90;;;;;;6092897;23;20118;-65
2023/06/06 00:37:12;;;;;;;8.13;2.53;;;18.60;61.90;;;;;;6091779;23;20014;-66
2023/06/06 00:39:58;;;;;;;3.30;1.85;;;18.60;62.10;;;;;;6091094;23;20010;-66
2023/06/06 00:42:44;;;;;;;5.03;1.70;;;18.50;62.10;;;;;;6092232;23;20099;-66
2023/06/06 00:45:30;;;;;;;2.42;1.52;;;18.50;62.20;;;;;;6092439;23;20482;-65
2023/06/06 00:48:17;;;;;;;4.88;2.05;;;18.50;62.30;;;;;;6091654;23;20413;-65
2023/06/06 00:51:03;;;;;;;3.15;1.50;;;18.50;62.30;;;;;;6093237;23;20021;-65
2023/06/06 00:53:49;;;;;;;3.50;1.45;;;18.50;62.40;;;;;;6092910;23;20018;-65
2023/06/06 00:56:36;;;;;;;4.10;2.15;;;18.50;62.40;;;;;;6092161;23;20011;-65
2023/06/06 00:59:23;;;;;;;2.58;1.50;;;18.50;62.40;;;;;;6090253;23;20511;-65
2023/06/06 01:02:10;;;;;;;2.78;1.83;;;18.50;62.40;;;;;;6091261;23;20089;-65
2023/06/06 01:04:57;;;;;;;4.80;1.60;;;18.50;62.40;;;;;;6069994;23;20018;-66
2023/06/06 01:07:43;;;;;;;4.47;2.05;;;18.50;62.40;;;;;;6093496;23;20006;-66
2023/06/06 01:10:30;;;;;;;2.70;1.95;;;18.50;62.50;;;;;;6092659;23;20093;-66
2023/06/06 01:13:18;;;;;;;3.28;1.85;;;18.50;62.50;;;;;;6094615;23;20018;-65
2023/06/06 01:16:17;;;;;;;3.95;2.13;;;18.50;62.50;;;;;;6095879;23;20018;-65
2023/06/06 01:19:09;;;;;;;3.90;1.85;;;18.50;62.50;;;;;;6094699;23;20077;-63
2023/06/06 01:21:56;;;;;;;4.32;2.22;;;18.50;62.50;;;;;;6094274;23;20038;-64
2023/06/06 01:24:46;;;;;;;4.13;1.80;;;18.40;62.50;;;;;;6109472;23;20830;-64
2023/06/06 01:27:33;;;;;;;5.32;2.05;;;18.40;62.40;;;;;;6122541;23;20010;-64
2023/06/06 01:30:25;;;;;;;2.58;1.90;;;18.40;62.40;;;;;;6123819;23;20006;-64
2023/06/06 01:33:56;;;;;;;4.75;1.70;;;18.40;62.50;;;;;;6122101;23;20013;-64
2023/06/06 01:37:00;;;;;;;3.70;1.75;;;18.40;62.60;;;;;;6120432;23;20109;-64
2023/06/06 01:39:48;;;;;;;3.58;1.67;;;18.40;62.50;;;;;;6122520;23;20363;-64
2023/06/06 01:42:43;;;;;;;11.05;2.22;;;18.30;62.40;;;;;;6102191;23;20097;-64
2023/06/06 01:45:31;;;;;;;5.22;1.85;;;18.30;62.60;;;;;;6120551;23;20010;-65
2023/06/06 01:48:18;;;;;;;2.65;1.67;;;18.30;62.60;;;;;;6120931;23;20073;-65
2023/06/06 01:51:05;;;;;;;3.35;2.13;;;18.30;62.70;;;;;;6119322;23;20010;-65
2023/06/06 01:53:51;;;;;;;2.90;1.83;;;18.30;62.50;;;;;;6121716;23;20082;-65
2023/06/06 01:56:37;;;;;;;3.45;2.13;;;18.30;62.50;;;;;;6120986;23;20033;-65
2023/06/06 01:59:23;;;;;;;5.50;1.65;;;18.30;62.60;;;;;;6124279;23;20108;-66
2023/06/06 02:02:09;;;;;;;3.58;1.90;;;18.30;62.60;;;;;;6123715;23;20006;-64
2023/06/06 02:04:55;;;;;;;2.97;2.08;;;18.20;62.60;;;;;;6120230;23;20014;-65
2023/06/06 02:07:41;;;;;;;3.08;1.77;;;18.20;62.60;;;;;;6124805;23;20685;-65
2023/06/06 02:10:27;;;;;;;3.72;1.85;;;18.20;62.70;;;;;;6123558;23;20491;-64
2023/06/06 02:13:13;;;;;;;2.95;1.88;;;18.20;62.70;;;;;;6123490;23;20016;-64
2023/06/06 02:15:58;;;;;;;5.50;1.90;;;18.20;62.70;;;;;;6121270;23;20510;-64
2023/06/06 02:18:44;;;;;;;2.58;1.60;;;18.10;62.70;;;;;;6122791;23;20352;-64
2023/06/06 02:21:30;;;;;;;3.15;1.70;;;18.10;62.70;;;;;;6120679;23;20021;-64
2023/06/06 02:24:16;;;;;;;2.70;1.60;;;18.10;62.70;;;;;;6122176;23;20088;-64
2023/06/06 02:27:03;;;;;;;4.78;2.05;;;18.10;62.70;;;;;;6122600;23;20045;-64
2023/06/06 02:29:49;;;;;;;3.88;2.00;;;18.10;62.70;;;;;;6122545;23;20009;-65
2023/06/06 02:32:35;;;;;;;4.15;2.50;;;18.10;62.70;;;;;;6101234;23;20002;-65
2023/06/06 02:35:21;;;;;;;5.28;1.90;;;18.10;62.80;;;;;;6123021;23;20519;-65
2023/06/06 02:38:07;;;;;;;4.03;2.00;;;18.10;62.80;;;;;;6125221;23;20580;-65
2023/06/06 02:40:53;;;;;;;3.22;2.03;;;18.20;62.80;;;;;;6125083;23;20455;-66
2023/06/06 02:43:42;;;;;;;4.25;1.90;;;18.10;62.70;;;;;;6124173;23;20029;-66
2023/06/06 02:46:27;;;;;;;3.08;1.90;;;18.10;62.70;;;;;;6120735;23;20348;-65
2023/06/06 02:49:13;;;;;;;3.92;2.20;;;18.10;62.70;;;;;;6124018;23;20036;-65
2023/06/06 02:51:59;;;;;;;3.20;2.17;;;18.10;62.70;;;;;;6122304;23;20372;-65
2023/06/06 02:54:45;;;;;;;3.70;2.05;;;18.00;62.60;;;;;;6124210;23;20101;-66
2023/06/06 02:57:31;;;;;;;3.85;2.05;;;18.00;62.70;;;;;;6121790;23;20369;-66
2023/06/06 03:00:17;;;;;;;5.35;2.58;;;18.00;62.60;;;;;;6122263;23;20127;-66
2023/06/06 03:03:03;;;;;;;4.88;2.00;;;18.00;62.70;;;;;;6121035;23;20002;-66
2023/06/06 03:05:51;;;;;;;3.25;1.73;;;18.10;62.80;;;;;;6121660;23;20447;-66
2023/06/06 03:08:40;;;;;;;4.03;2.15;;;18.00;62.80;;;;;;6121652;23;20097;-66
2023/06/06 03:11:26;;;;;;;4.32;2.20;;;18.00;62.80;;;;;;6121867;23;20742;-66
2023/06/06 03:14:12;;;;;;;4.45;1.92;;;18.00;62.70;;;;;;6124474;23;20536;-67
2023/06/06 03:16:58;;;;;;;6.90;2.15;;;18.00;62.70;;;;;;6124504;23;20006;-65
2023/06/06 03:19:48;;;;;;;4.78;2.40;;;18.00;62.70;;;;;;6121510;23;20052;-64
2023/06/06 03:22:34;;;;;;;4.15;2.28;;;18.00;62.80;;;;;;6120711;23;20060;-65
2023/06/06 03:25:21;;;;;;;3.03;1.95;;;18.00;62.90;;;;;;6122679;23;20452;-65
2023/06/06 03:28:07;;;;;;;5.22;2.10;;;18.00;62.90;;;;;;6122236;23;20037;-65
2023/06/06 03:30:54;;;;;;;6.97;2.58;;;18.00;63.00;;;;;;6123685;23;20036;-64
2023/06/06 03:33:40;;;;;;;2.55;1.55;;;18.00;63.00;;;;;;6121765;23;20018;-65
2023/06/06 03:36:26;;;;;;;3.38;1.92;;;18.00;63.00;;;;;;6120832;23;20018;-65
2023/06/06 03:39:12;;;;;;;5.28;2.17;;;18.00;63.00;;;;;;6121954;23;20109;-65
2023/06/06 03:41:58;;;;;;;4.35;2.25;;;18.00;63.10;;;;;;6120869;23;20332;-64
2023/06/06 03:44:44;;;;;;;5.35;2.05;;;18.00;63.10;;;;;;6122210;23;20028;-64
2023/06/06 03:47:30;;;;;;;4.55;2.30;;;18.00;63.30;;;;;;6122984;23;20013;-65
2023/06/06 03:50:18;;;;;;;3.20;1.98;;;18.00;63.30;;;;;;6123289;23;20018;-65
2023/06/06 03:53:03;;;;;;;3.35;2.00;;;18.00;63.40;;;;;;6122684;23;20017;-65
2023/06/06 03:55:49;;;;;;;3.95;2.13;;;17.90;63.40;;;;;;6119255;23;20018;-64
2023/06/06 03:58:38;;;;;;;4.97;2.22;;;18.00;63.40;;;;;;6121873;23;20025;-65
2023/06/06 04:01:24;;;;;;;8.27;1.98;;;18.00;63.60;;;;;;6099525;23;20008;-64
2023/06/06 04:04:15;;;;;;;4.72;2.28;;;18.00;63.60;;;;;;6122399;23;20076;-64
2023/06/06 04:07:01;;;;;;;3.55;1.83;;;18.00;63.70;;;;;;6120451;23;20511;-63
2023/06/06 04:09:46;;;;;;;5.93;2.38;;;17.90;63.80;;;;;;6121272;23;20474;-64
2023/06/06 04:12:32;;;;;;;4.30;2.10;;;17.90;64.10;;;;;;6122931;23;20716;-64
2023/06/06 04:15:18;;;;;;;2.90;1.95;;;17.90;64.00;;;;;;6119894;23;20014;-63
2023/06/06 04:18:05;;;;;;;8.10;2.67;;;17.90;64.20;;;;;;6120635;23;20017;-63
2023/06/06 04:20:52;;;;;;;5.53;2.53;;;17.90;64.30;;;;;;6119452;23;20053;-64
2023/06/06 04:23:38;;;;;;;3.75;2.10;;;17.90;64.30;;;;;;6123308;23;20010;-64
2023/06/06 04:26:31;;;;;;;4.32;2.00;;;17.90;64.20;;;;;;6121271;23;20006;-65
2023/06/06 04:29:18;;;;;;;3.63;2.15;;;18.00;64.30;;;;;;6122044;23;20010;-65
2023/06/06 04:32:04;;;;;;;5.80;2.20;;;18.00;64.30;;;;;;6120681;23;20017;-66
2023/06/06 04:34:57;;;;;;;3.40;1.85;;;18.00;64.40;;;;;;6099853;23;20021;-65
2023/06/06 04:37:43;;;;;;;8.00;2.85;;;17.90;64.40;;;;;;6121570;23;20073;-66
2023/06/06 04:40:32;;;;;;;5.32;2.65;;;18.00;64.50;;;;;;6121409;23;20467;-64
2023/06/06 04:43:23;;;;;;;7.22;2.13;;;18.00;64.60;;;;;;6120562;23;20010;-64
2023/06/06 04:46:09;;;;;;;5.38;2.72;;;18.00;64.60;;;;;;6120456;23;20017;-64
2023/06/06 04:48:59;;;;;;;3.97;2.00;;;17.90;64.50;;;;;;6122429;23;20013;-64
2023/06/06 04:51:45;;;;;;;4.45;2.20;;;18.00;64.70;;;;;;6120665;23;20014;-68
2023/06/06 04:54:31;;;;;;;4.80;1.90;;;18.00;64.70;;;;;;6122056;23;20014;-68
2023/06/06 04:57:19;;;;;;;3.60;1.70;;;18.00;64.80;;;;;;6121250;23;20065;-69
2023/06/06 05:00:09;;;;;;;5.57;2.05;;;18.10;65.20;;;;;;6122521;23;20452;-69
2023/06/06 05:02:55;;;;;;;3.75;2.28;;;18.10;64.40;;;;;;6120964;23;20006;-68
2023/06/06 05:05:41;;;;;;;4.30;2.47;;;18.10;64.40;;;;;;6120692;23;20013;-69
2023/06/06 05:08:31;;;;;;;5.97;2.28;;;18.20;64.40;;;;;;6122742;23;20014;-69
2023/06/06 05:11:18;;;;;;;3.80;2.05;;;18.20;64.30;;;;;;6119907;23;20014;-69
2023/06/06 05:14:04;;;;;;;4.75;2.00;;;18.20;64.30;;;;;;6119436;23;20006;-70
2023/06/06 05:16:52;;;;;;;3.63;2.10;;;18.30;64.20;;;;;;6121554;23;20120;-69
2023/06/06 05:19:38;;;;;;;3.78;2.25;;;18.30;64.10;;;;;;6122536;23;20022;-70
2023/06/06 05:22:24;;;;;;;4.93;2.25;;;18.40;64.00;;;;;;6118946;23;20014;-70
2023/06/06 05:25:10;;;;;;;4.78;2.35;;;18.40;63.90;;;;;;6120293;23;20053;-70
2023/06/06 05:27:56;;;;;;;6.28;2.28;;;18.50;63.80;;;;;;6121875;23;20153;-69
2023/06/06 05:30:42;;;;;;;6.13;2.40;;;18.50;63.70;;;;;;6121916;23;20014;-70
2023/06/06 05:33:30;;;;;;;4.72;2.45;;;18.70;63.80;;;;;;6120865;23;20072;-69
2023/06/06 05:36:16;;;;;;;2.92;1.98;;;18.70;63.90;;;;;;6119066;23;20072;-70
2023/06/06 05:39:03;;;;;;;6.82;2.75;;;18.80;63.10;;;;;;6120419;23;20100;-71
2023/06/06 05:41:54;;;;;;;5.60;2.25;;;18.90;63.00;;;;;;6121129;23;20018;-69
2023/06/06 05:44:40;;;;;;;3.80;2.20;;;19.00;62.70;;;;;;6119826;23;20068;-69
2023/06/06 05:47:26;;;;;;;10.02;2.78;;;19.10;62.60;;;;;;6120677;23;20395;-68
2023/06/06 05:50:12;;;;;;;7.97;2.03;;;19.20;62.30;;;;;;6120949;23;20065;-68
2023/06/06 05:52:58;;;;;;;5.75;2.25;;;19.30;62.40;;;;;;6122293;23;20038;-68
2023/06/06 05:55:44;;;;;;;6.15;2.40;;;19.30;62.10;;;;;;6122762;23;20429;-68
2023/06/06 05:58:30;;;;;;;3.60;2.17;;;19.40;62.00;;;;;;6122988;23;20352;-69
2023/06/06 06:01:17;;;;;;;5.85;2.35;;;19.40;61.70;;;;;;6122723;23;20057;-69
2023/06/06 06:04:03;;;;;;;4.55;1.90;;;19.50;61.70;;;;;;6120097;23;20014;-69
2023/06/06 06:06:49;;;;;;;3.38;1.73;;;19.60;61.80;;;;;;6099833;23;20014;-70
2023/06/06 06:09:35;;;;;;;4.40;1.92;;;19.60;61.60;;;;;;6121783;23;20036;-70
2023/06/06 06:12:21;;;;;;;11.10;2.90;;;19.70;61.60;;;;;;6099845;23;20065;-66
2023/06/06 06:15:08;;;;;;;4.03;2.08;;;19.80;61.70;;;;;;6120482;23;20013;-66
2023/06/06 06:17:54;;;;;;;3.90;2.42;;;19.90;61.60;;;;;;6121787;23;20416;-66
2023/06/06 06:20:39;;;;;;;5.75;2.00;;;20.00;61.90;;;;;;6122175;23;20080;-66
2023/06/06 06:23:25;;;;;;;4.93;2.03;;;20.10;61.80;;;;;;6121225;23;20045;-67
2023/06/06 06:26:11;;;;;;;12.80;2.17;;;20.30;61.90;;;;;;6123473;23;20085;-66
2023/06/06 06:28:58;;;;;;;3.65;2.17;;;20.40;61.40;;;;;;6123823;23;20018;-65
2023/06/06 06:31:44;;;;;;;3.85;2.00;;;20.50;61.10;;;;;;6119709;23;20093;-66
2023/06/06 06:34:30;;;;;;;4.32;1.85;;;20.50;60.90;;;;;;6120808;23;20436;-67
2023/06/06 06:37:16;;;;;;;7.25;1.90;;;20.60;61.00;;;;;;6122204;23;20037;-67
2023/06/06 06:40:11;;;;;;;4.25;1.92;;;20.60;60.80;;;;;;6121264;23;20018;-66
2023/06/06 06:42:57;;;;;;;3.08;1.92;;;20.70;60.60;;;;;;6121032;23;20021;-66
2023/06/06 06:45:43;;;;;;;3.40;2.05;;;20.80;60.70;;;;;;6122532;23;20710;-66
2023/06/06 06:48:29;;;;;;;5.63;3.17;;;20.90;60.30;;;;;;6121609;23;20340;-67
2023/06/06 06:51:16;;;;;;;6.78;1.95;;;21.00;60.70;;;;;;6123552;23;20013;-66
2023/06/06 06:54:02;;;;;;;2.83;1.90;;;21.10;61.10;;;;;;6121023;23;20020;-66
2023/06/06 06:56:53;;;;;;;4.88;2.17;;;21.20;61.40;;;;;;6122641;23;20340;-66
2023/06/06 06:59:40;;;;;;;3.30;2.13;;;21.40;61.00;;;;;;6121177;23;20032;-65
2023/06/06 07:02:27;;;;;;;4.15;2.85;;;21.50;61.00;;;;;;6120779;23;20085;-66
2023/06/06 07:05:15;;;;;;;8.15;2.50;;;21.60;60.30;;;;;;6121554;23;20137;-66
2023/06/06 07:08:02;;;;;;;5.03;2.03;;;21.70;59.80;;;;;;6120624;23;20010;-66
2023/06/06 07:10:48;;;;;;;4.70;1.80;;;21.80;60.20;;;;;;6119915;23;20014;-65
2023/06/06 07:13:34;;;;;;;7.10;2.47;;;22.00;59.90;;;;;;6123834;23;20397;-65
2023/06/06 07:16:22;;;;;;;5.05;2.63;;;22.10;60.50;;;;;;6120588;23;20094;-64
2023/06/06 07:19:08;;;;;;;4.78;2.53;;;22.30;59.90;;;;;;6098960;23;20057;-65
2023/06/06 07:21:56;;;;;;;3.45;2.22;;;22.40;59.20;;;;;;6123474;23;20037;-64
2023/06/06 07:24:43;;;;;;;5.32;2.55;;;22.50;59.20;;;;;;6122554;23;20025;-66
2023/06/06 07:27:33;;;;;;;10.13;6.05;;;22.70;59.40;;;;;;6120363;23;20013;-65
2023/06/06 07:30:20;;;;;;;16.55;5.00;;;22.90;59.50;;;;;;6120258;23;20013;-66
2023/06/06 07:33:06;;;;;;;4.85;2.30;;;23.10;59.90;;;;;;6119292;23;20052;-65
2023/06/06 07:35:52;;;;;;;6.82;2.72;;;23.20;58.80;;;;;;6098225;23;20096;-64
2023/06/06 07:38:38;;;;;;;3.78;2.10;;;23.40;58.00;;;;;;6121237;23;20483;-65
2023/06/06 07:41:26;;;;;;;5.63;2.30;;;23.40;57.70;;;;;;6120470;23;20422;-66
2023/06/06 07:44:15;;;;;;;6.70;3.42;;;23.50;58.00;;;;;;6118964;23;20042;-65
2023/06/06 07:47:01;;;;;;;6.00;3.10;;;23.60;58.30;;;;;;6122130;23;20013;-64
2023/06/06 07:49:47;;;;;;;4.97;3.08;;;23.70;57.80;;;;;;6122245;23;20539;-67
2023/06/06 07:52:34;;;;;;;7.82;3.13;;;23.80;56.40;;;;;;6122187;23;20045;-66
2023/06/06 07:55:20;;;;;;;4.60;2.25;;;23.80;56.20;;;;;;6121527;23;20452;-67
2023/06/06 07:58:12;;;;;;;5.93;2.42;;;23.90;56.30;;;;;;6120990;23;20118;-66
2023/06/06 08:01:00;;;;;;;4.43;2.70;;;23.90;55.90;;;;;;6120831;23;20385;-67
2023/06/06 08:03:50;;;;;;;7.20;2.75;;;24.00;56.80;;;;;;6121522;23;20422;-65
2023/06/06 08:06:37;;;;;;;4.80;2.67;;;24.10;56.50;;;;;;6119289;23;20014;-66
2023/06/06 08:09:23;;;;;;;9.80;3.83;;;24.20;56.40;;;;;;6119712;23;20097;-66
2023/06/06 08:12:10;;;;;;;5.85;2.60;;;24.30;55.60;;;;;;6122853;23;20341;-67
2023/06/06 08:14:56;;;;;;;4.32;2.38;;;24.30;55.20;;;;;;6121328;23;20032;-68
2023/06/06 08:17:42;;;;;;;7.15;2.85;;;24.30;55.10;;;;;;6121852;23;20340;-67
2023/06/06 08:20:28;;;;;;;5.13;2.35;;;24.40;54.70;;;;;;6122683;23;20492;-67
2023/06/06 08:23:13;;;;;;;4.95;2.35;;;24.40;54.40;;;;;;6120899;23;20014;-67
2023/06/06 08:26:00;;;;;;;4.18;2.47;;;24.40;53.90;;;;;;6097688;23;20030;-67
2023/06/06 08:28:45;;;;;;;5.00;2.38;;;24.50;54.40;;;;;;6119839;23;20010;-67
2023/06/06 08:31:31;;;;;;;6.38;3.20;;;24.60;54.30;;;;;;6117663;23;20014;-67
2023/06/06 08:34:17;;;;;;;5.25;2.75;;;24.60;54.70;;;;;;6120633;23;20010;-67
2023/06/06 08:37:04;;;;;;;5.80;3.00;;;24.70;54.90;;;;;;6119878;23;20014;-67
2023/06/06 08:39:50;;;;;;;8.70;3.33;;;24.80;54.50;;;;;;6120631;23;20454;-67
2023/06/06 08:42:43;;;;;;;5.47;2.72;;;24.90;54.50;;;;;;6120948;23;20010;-67
2023/06/06 08:45:29;;;;;;;5.70;2.50;;;24.90;54.00;;;;;;6116463;23;20009;-68
2023/06/06 08:48:17;;;;;;;7.82;4.43;;;25.00;54.10;;;;;;6120381;23;20014;-68
2023/06/06 08:51:04;;;;;;;8.77;2.95;;;25.00;54.10;;;;;;6121554;23;20089;-68
2023/06/06 08:53:50;;;;;;;5.32;2.30;;;25.10;53.70;;;;;;6121426;23;20448;-68
2023/06/06 08:56:38;;;;;;;8.32;2.55;;;25.10;53.40;;;;;;6119794;23;20702;-68
2023/06/06 08:59:25;;;;;;;6.50;2.20;;;25.10;53.70;;;;;;6120258;23;20025;-68
2023/06/06 09:02:11;;;;;;;5.20;2.67;;;25.20;53.50;;;;;;6119775;23;20044;-68
2023/06/06 09:04:57;;;;;;;9.07;3.47;;;25.30;53.20;;;;;;6118902;23;20018;-67
2023/06/06 09:07:43;;;;;;;7.22;2.33;;;25.30;52.70;;;;;;6120669;23;20017;-68
2023/06/06 09:10:29;;;;;;;6.13;2.60;;;25.30;53.70;;;;;;6119127;23;20072;-67
2023/06/06 09:13:15;;;;;;;5.93;2.40;;;25.30;53.00;;;;;;6118447;23;20009;-68
2023/06/06 09:16:04;;;;;;;5.07;2.90;;;25.40;53.70;;;;;;6115509;23;20010;-67
2023/06/06 09:18:50;;;;;;;12.40;3.17;;;25.60;53.90;;;;;;6121902;23;20064;-67
2023/06/06 09:21:36;;;;;;;5.85;2.58;;;25.70;53.80;;;;;;6118979;23;20018;-67
2023/06/06 09:24:22;;;;;;;5.57;2.80;;;25.70;52.90;;;;;;6118141;23;20029;-66
2023/06/06 09:27:26;;;;;;;3.20;1.90;;;25.70;52.90;;;;;;6117471;23;20010;-67
2023/06/06 09:30:23;;;;;;;5.18;2.33;;;25.70;53.30;;;;;;6122244;23;20353;-67
2023/06/06 09:33:10;;;;;;;5.90;2.70;;;25.80;53.30;;;;;;6121572;23;20014;-67
2023/06/06 09:35:56;;;;;;;5.18;2.70;;;25.90;53.10;;;;;;6121867;23;20426;-67
2023/06/06 09:38:41;;;;;;;4.03;2.78;;;26.00;53.20;;;;;;6098505;23;20372;-67
2023/06/06 09:41:27;;;;;;;5.07;2.50;;;25.90;53.10;;;;;;6119550;23;20435;-67
2023/06/06 09:44:28;;;;;;;3.40;2.03;;;26.00;53.00;;;;;;6120066;23;20020;-67
2023/06/06 09:47:14;;;;;;;3.95;2.65;;;26.10;52.90;;;;;;6121972;23;20017;-66
2023/06/06 09:50:00;;;;;;;3.53;2.50;;;26.10;53.10;;;;;;6121171;23;20017;-66
2023/06/06 09:52:51;;;;;;;7.55;2.78;;;26.20;53.20;;;;;;6120854;23;20014;-67
2023/06/06 09:55:38;;;;;;;3.97;2.60;;;26.20;53.70;;;;;;6122959;23;20069;-67
2023/06/06 09:58:26;;;;;;;4.15;2.67;;;26.40;54.10;;;;;;6120470;23;20022;-68
2023/06/06 10:01:12;;;;;;;3.72;2.95;;;26.50;54.00;;;;;;6123609;23;20041;-67
2023/06/06 10:03:59;;;;;;;10.75;3.00;;;26.50;53.70;;;;;;6122755;23;20020;-70
2023/06/06 10:06:46;;;;;;;4.63;2.85;;;26.60;53.60;;;;;;6121054;23;20103;-67
2023/06/06 10:09:33;;;;;;;5.38;2.65;;;26.70;53.30;;;;;;6118025;23;20522;-66
2023/06/06 10:12:19;;;;;;;5.50;2.35;;;26.70;53.60;;;;;;6119980;23;20017;-66
2023/06/06 10:15:07;;;;;;;4.53;2.58;;;26.80;53.90;;;;;;6122450;23;20101;-66
2023/06/06 10:17:54;;;;;;;4.53;2.40;;;26.80;53.70;;;;;;6121203;23;20018;-65
2023/06/06 10:20:40;;;;;;;4.97;2.38;;;26.90;53.60;;;;;;6122990;23;20053;-66
2023/06/06 10:23:26;;;;;;;5.97;2.42;;;26.90;53.60;;;;;;6123075;23;20110;-67
2023/06/06 10:26:22;;;;;;;3.45;2.25;;;27.00;53.80;;;;;;6119816;23;20078;-66
2023/06/06 10:29:20;;;;;;;4.20;2.72;;;27.00;53.80;;;;;;6119924;23;20014;-67
2023/06/06 10:32:15;;;;;;;4.93;2.45;;;27.20;53.90;;;;;;6122260;23;20026;-67
2023/06/06 10:35:03;;;;;;;3.95;2.50;;;27.30;53.10;;;;;;6120828;23;20010;-67
2023/06/06 10:38:09;;;;;;;4.65;2.70;;;27.30;52.80;;;;;;6120737;23;20018;-67
2023/06/06 10:40:58;;;;;;;5.03;2.88;;;27.40;52.30;;;;;;6091826;23;20014;-66
2023/06/06 10:43:47;;;;;;;7.55;3.03;;;27.40;52.80;;;;;;6122112;23;20006;-66
2023/06/06 10:46:34;;;;;;;4.25;2.50;;;27.50;51.60;;;;;;6119421;23;20330;-66
2023/06/06 10:49:20;;;;;;;2.92;2.40;;;27.50;51.70;;;;;;6123190;23;20347;-67
2023/06/06 10:52:06;;;;;;;5.63;2.83;;;27.60;52.50;;;;;;6101158;23;20037;-66
2023/06/06 10:54:57;;;;;;;4.70;3.05;;;27.60;52.90;;;;;;6112073;23;20149;-66
2023/06/06 10:58:10;;;;;;;9.02;3.60;;;27.70;52.80;;;;;;6099862;23;20018;-66
2023/06/06 11:00:58;;;;;;;5.55;2.50;;;27.80;52.80;;;;;;6121700;23;20010;-66
2023/06/06 11:03:45;;;;;;;4.63;3.00;;;27.80;51.80;;;;;;6121619;23;20040;-66
2023/06/06 11:06:31;;;;;;;7.10;2.42;;;27.80;52.20;;;;;;6120058;23;20014;-66
2023/06/06 11:09:22;;;;;;;11.68;2.90;;;27.80;51.90;;;;;;6120321;23;20393;-66
2023/06/06 11:12:14;;;;;;;4.65;2.53;;;27.80;52.30;;;;;;6122258;23;20014;-67
2023/06/06 11:15:05;;;;;;;8.77;2.67;;;27.80;51.90;;;;;;6123115;23;20058;-67
2023/06/06 11:18:01;;;;;;;4.50;2.55;;;27.80;51.40;;;;;;6120711;23;20010;-66
2023/06/06 11:20:47;;;;;;;4.82;3.15;;;27.70;51.40;;;;;;6100365;23;20014;-67
2023/06/06 11:23:40;;;;;;;3.92;2.30;;;27.60;50.50;;;;;;6122328;23;20077;-66
2023/06/06 11:26:27;;;;;;;5.80;2.72;;;27.50;50.00;;;;;;6120507;23;20341;-67
2023/06/06 11:29:13;;;;;;;3.80;2.25;;;27.40;50.40;;;;;;6122346;23;20437;-68
2023/06/06 11:31:59;;;;;;;5.43;2.97;;;27.40;50.10;;;;;;6120486;23;20006;-66
2023/06/06 11:34:45;;;;;;;15.80;4.20;;;27.40;50.70;;;;;;6122224;23;20017;-66
2023/06/06 11:37:32;;;;;;;4.45;2.60;;;27.50;51.10;;;;;;6119416;23;20042;-66
2023/06/06 11:40:17;;;;;;;10.40;3.42;;;27.50;50.80;;;;;;6121405;23;20448;-67
2023/06/06 11:43:05;;;;;;;12.05;3.55;;;27.40;49.90;;;;;;6122232;23;20092;-66
2023/06/06 11:46:03;;;;;;;4.22;2.20;;;27.40;50.50;;;;;;6115653;23;20510;-66
2023/06/06 11:48:59;;;;;;;13.48;3.47;;;27.40;50.00;;;;;;6101424;23;20014;-69
2023/06/06 11:52:02;;;;;;;5.45;2.22;;;27.40;50.40;;;;;;6120580;23;20097;-65
2023/06/06 11:55:04;;;;;;;28.55;6.63;;;27.40;51.20;;;;;;6118123;23;20045;-65
2023/06/06 11:57:50;;;;;;;8.85;2.55;;;27.50;52.00;;;;;;6119326;23;20014;-66
2023/06/06 12:00:36;;;;;;;26.38;5.85;;;27.50;51.20;;;;;;6121617;23;20479;-64
2023/06/06 12:03:22;;;;;;;7.70;3.20;;;27.60;51.40;;;;;;6120517;23;20527;-65
2023/06/06 12:06:09;;;;;;;32.20;6.55;;;27.60;50.90;;;;;;6096570;23;20356;-66
2023/06/06 12:08:55;;;;;;;13.43;3.95;;;27.60;51.60;;;;;;6110741;23;20098;-65
2023/06/06 12:11:50;;;;;;;34.97;6.93;;;27.60;51.10;;;;;;6110358;23;20473;-66
2023/06/06 12:14:36;;;;;;;7.55;3.10;;;27.60;51.50;;;;;;6121835;23;20038;-66
2023/06/06 12:17:25;;;;;;;14.77;4.00;;;27.60;51.20;;;;;;6119623;23;20411;-66
2023/06/06 12:20:21;;;;;;;8.98;2.70;;;27.60;51.50;;;;;;6118497;23;20399;-67
2023/06/06 12:23:07;;;;;;;6.68;3.20;;;27.60;50.50;;;;;;6121287;23;20460;-65
2023/06/06 12:26:00;;;;;;;5.55;2.42;;;27.60;50.50;;;;;;6120719;23;20487;-65
2023/06/06 12:28:59;;;;;;;3.25;2.42;;;27.60;50.60;;;;;;6121224;23;20088;-66
2023/06/06 12:31:48;;;;;;;6.22;2.65;;;27.60;50.60;;;;;;6101326;23;20041;-66
2023/06/06 12:35:02;;;;;;;6.10;2.75;;;27.50;51.30;;;;;;6121004;23;20018;-67
2023/06/06 12:37:48;;;;;;;6.03;2.47;;;27.60;50.60;;;;;;6120589;23;20042;-64
2023/06/06 12:40:34;;;;;;;5.70;2.83;;;27.60;50.70;;;;;;6121603;23;20455;-66
2023/06/06 12:43:20;;;;;;;6.22;2.85;;;27.60;51.10;;;;;;6118984;23;20010;-66
2023/06/06 12:46:06;;;;;;;6.50;2.65;;;27.60;50.80;;;;;;6118585;23;20018;-67
2023/06/06 12:48:51;;;;;;;3.63;2.22;;;27.60;50.10;;;;;;6118020;23;20444;-66
2023/06/06 12:51:39;;;;;;;4.57;3.17;;;27.40;50.00;;;;;;6118561;23;20010;-66
2023/06/06 12:54:25;;;;;;;6.32;3.17;;;27.40;50.30;;;;;;6119360;23;20014;-66
2023/06/06 12:57:12;;;;;;;4.10;2.50;;;27.40;50.90;;;;;;6099576;23;20050;-66
2023/06/06 12:59:58;;;;;;;4.97;2.35;;;27.40;50.80;;;;;;6121079;23;20022;-61
2023/06/06 13:02:44;;;;;;;3.72;2.50;;;27.50;50.80;;;;;;6119812;23;20006;-64
2023/06/06 13:05:30;;;;;;;5.60;3.38;;;27.40;50.60;;;;;;6121487;23;20010;-64
2023/06/06 13:08:17;;;;;;;4.80;2.92;;;27.40;50.80;;;;;;6122780;23;20444;-63
2023/06/06 13:11:03;;;;;;;3.75;2.38;;;27.30;50.40;;;;;;6121503;23;20021;-64
2023/06/06 13:13:48;;;;;;;6.43;2.90;;;27.30;50.50;;;;;;6121025;23;20026;-65
2023/06/06 13:16:36;;;;;;;5.25;2.70;;;27.20;50.60;;;;;;6120142;23;20333;-64
2023/06/06 13:19:22;;;;;;;7.53;2.63;;;27.20;50.70;;;;;;6119907;23;20452;-64
2023/06/06 13:22:08;;;;;;;7.22;3.08;;;27.00;50.40;;;;;;6120765;23;20006;-64
2023/06/06 13:24:54;;;;;;;7.28;3.22;;;26.90;50.80;;;;;;6121932;23;20022;-63
2023/06/06 13:27:40;;;;;;;3.78;2.40;;;26.80;51.40;;;;;;6119848;23;20006;-63
2023/06/06 13:30:26;;;;;;;5.88;2.88;;;26.70;51.30;;;;;;6123049;23;20022;-63
2023/06/06 13:33:12;;;;;;;5.70;3.08;;;26.60;51.70;;;;;;6121728;23;20013;-64
2023/06/06 13:35:58;;;;;;;7.72;2.88;;;26.60;51.70;;;;;;6122205;23;20328;-64
2023/06/06 13:38:47;;;;;;;6.45;2.97;;;26.50;51.80;;;;;;6121449;23;20028;-64
2023/06/06 13:41:35;;;;;;;6.03;2.80;;;26.50;51.80;;;;;;6122908;23;20116;-64
2023/06/06 13:44:21;;;;;;;3.88;2.88;;;26.40;52.10;;;;;;6122242;23;20020;-63
2023/06/06 13:47:07;;;;;;;8.20;3.33;;;26.40;52.20;;;;;;6123261;23;20006;-64
2023/06/06 13:49:55;;;;;;;5.32;2.80;;;26.30;52.60;;;;;;6121317;23;20340;-64
2023/06/06 13:52:43;;;;;;;3.97;2.40;;;26.20;52.80;;;;;;6110756;23;20010;-63
2023/06/06 13:55:30;;;;;;;6.10;2.97;;;26.10;52.80;;;;;;6123046;23;20436;-62
2023/06/06 13:58:22;;;;;;;7.47;3.03;;;26.10;53.20;;;;;;6122336;23;20093;-65
2023/06/06 14:01:08;;;;;;;4.00;2.45;;;26.00;53.30;;;;;;6123257;23;20017;-64
2023/06/06 14:03:55;;;;;;;4.38;2.85;;;25.90;53.40;;;;;;6110936;23;20045;-63
2023/06/06 14:06:41;;;;;;;8.40;3.30;;;25.90;53.70;;;;;;6121455;23;20059;-62
2023/06/06 14:09:28;;;;;;;6.90;3.67;;;25.80;53.80;;;;;;6118806;23;20049;-62
2023/06/06 14:12:16;;;;;;;5.07;2.72;;;25.80;54.00;;;;;;6117045;23;20014;-62
2023/06/06 14:15:03;;;;;;;4.10;2.90;;;25.70;53.90;;;;;;6121636;23;20444;-63
2023/06/06 14:17:49;;;;;;;7.90;3.25;;;25.70;54.30;;;;;;6109407;23;20014;-63
2023/06/06 14:20:49;;;;;;;5.32;3.05;;;25.70;54.70;;;;;;6120106;23;20692;-63
2023/06/06 14:23:38;;;;;;;6.05;3.28;;;25.60;54.90;;;;;;6120002;23;20014;-62
2023/06/06 14:26:24;;;;;;;3.85;2.53;;;25.60;54.80;;;;;;6118940;23;20044;-62
2023/06/06 14:29:10;;;;;;;7.03;3.30;;;25.70;54.80;;;;;;6122215;23;20463;-63
2023/06/06 14:31:59;;;;;;;4.50;2.90;;;25.70;54.90;;;;;;6111468;23;20085;-62